createdAt,value
2019-04-29T00:01:00.231Z,102019.33
2019-04-29T00:04:23.824Z,102022.22
2019-04-29T00:07:46.869Z,102024.16
2019-04-29T00:11:10.141Z,102023.03
2019-04-29T00:14:34.544Z,102027.25
2019-04-29T00:18:02.561Z,102029.21
2019-04-29T00:21:25.879Z,102026.59
2019-04-29T00:24:48.957Z,102032.56
2019-04-29T00:28:12.153Z,102035.41
2019-04-29T00:31:35.300Z,102040.84
2019-04-29T00:34:58.843Z,102044.14
2019-04-29T00:38:42.490Z,102048.71
2019-04-29T00:42:22.273Z,102049.23
2019-04-29T00:45:45.527Z,102048.09
2019-04-29T00:49:09.032Z,102054.41
2019-04-29T00:52:32.584Z,102053.53
2019-04-29T00:55:55.883Z,102056.80
2019-04-29T00:59:19.169Z,102052.42
2019-04-29T01:02:42.384Z,102055.92
2019-04-29T01:06:05.344Z,102060.95
2019-04-29T01:09:28.793Z,102057.62
2019-04-29T01:12:51.854Z,102061.12
2019-04-29T01:16:14.915Z,102056.19
2019-04-29T01:19:37.987Z,102054.50
2019-04-29T01:23:01.025Z,102054.14
2019-04-29T01:26:43.667Z,102051.72
2019-04-29T01:30:08.492Z,102055.24
2019-04-29T01:33:31.523Z,102053.43
2019-04-29T01:36:54.614Z,102057.23
2019-04-29T01:40:37.254Z,102059.20
2019-04-29T01:44:02.984Z,102066.44
2019-04-29T01:47:27.227Z,102065.61
2019-04-29T01:50:50.250Z,102064.73
2019-04-29T01:54:13.659Z,102070.27
2019-04-29T01:57:36.733Z,102074.08
2019-04-29T02:00:59.773Z,102081.48
2019-04-29T02:04:22.843Z,102081.25
2019-04-29T02:07:45.960Z,102081.13
2019-04-29T02:11:08.993Z,102083.93
2019-04-29T02:14:32.019Z,102075.25
2019-04-29T02:17:55.247Z,102078.50
2019-04-29T02:21:18.280Z,102077.23
2019-04-29T02:24:45.060Z,102087.27
2019-04-29T02:28:08.201Z,102086.27
2019-04-29T02:31:37.528Z,102082.08
2019-04-29T02:35:00.695Z,102088.26
2019-04-29T02:38:39.212Z,102080.33
2019-04-29T02:42:25.355Z,102086.15
2019-04-29T02:45:48.419Z,102082.54
2019-04-29T02:49:11.423Z,102082.38
2019-04-29T02:52:34.640Z,102087.38
2019-04-29T02:55:59.840Z,102085.34
2019-04-29T02:59:28.787Z,102093.56
2019-04-29T03:02:59.008Z,102086.84
2019-04-29T03:06:21.983Z,102087.13
2019-04-29T03:09:45.175Z,102096.88
2019-04-29T03:13:08.156Z,102087.23
2019-04-29T03:16:31.166Z,102088.65
2019-04-29T03:20:13.641Z,102088.34
2019-04-29T03:23:36.732Z,102084.84
2019-04-29T03:26:59.967Z,102082.16
2019-04-29T03:30:22.975Z,102077.37
2019-04-29T03:33:46.072Z,102085.66
2019-04-29T03:37:09.115Z,102086.76
2019-04-29T03:40:32.635Z,102086.40
2019-04-29T03:43:55.694Z,102087.17
2019-04-29T03:47:19.253Z,102087.53
2019-04-29T03:50:42.877Z,102090.83
2019-04-29T03:54:08.811Z,102102.33
2019-04-29T03:57:35.594Z,102101.64
2019-04-29T04:01:06.753Z,102119.44
2019-04-29T04:04:48.038Z,102111.66
2019-04-29T04:08:33.490Z,102113.25
2019-04-29T04:11:56.711Z,102116.05
2019-04-29T04:15:19.861Z,102116.41
2019-04-29T04:18:43.618Z,102122.16
2019-04-29T04:22:06.739Z,102123.23
2019-04-29T04:25:29.742Z,102122.96
2019-04-29T04:28:52.739Z,102124.28
2019-04-29T04:32:15.731Z,102120.80
2019-04-29T04:35:38.806Z,102121.55
2019-04-29T04:39:02.338Z,102124.81
2019-04-29T04:42:29.908Z,102122.90
2019-04-29T04:45:52.525Z,102126.97
2019-04-29T04:49:16.021Z,102136.04
2019-04-29T04:52:39.353Z,102139.47
2019-04-29T04:56:02.411Z,102139.88
2019-04-29T04:59:25.415Z,102145.78
2019-04-29T05:02:48.377Z,102143.84
2019-04-29T05:06:11.371Z,102141.87
2019-04-29T05:09:34.718Z,102152.60
2019-04-29T05:12:57.806Z,102151.16
2019-04-29T05:16:21.039Z,102159.61
2019-04-29T05:19:44.542Z,102161.59
2019-04-29T05:23:07.667Z,102156.72
2019-04-29T05:26:30.801Z,102159.81
2019-04-29T05:29:54.110Z,102161.95
2019-04-29T05:33:18.353Z,102165.73
2019-04-29T05:36:49.113Z,102165.88
2019-04-29T05:40:32.970Z,102167.08
2019-04-29T05:44:18.815Z,102175.70
2019-04-29T05:47:43.584Z,102177.95
2019-04-29T05:51:27.300Z,102185.97
2019-04-29T05:54:51.471Z,102180.72
2019-04-29T05:58:14.490Z,102189.16
2019-04-29T06:01:37.480Z,102191.44
2019-04-29T06:05:00.563Z,102193.71
2019-04-29T06:08:23.679Z,102186.49
2019-04-29T06:11:47.069Z,102193.91
2019-04-29T06:15:10.158Z,102191.52
2019-04-29T06:18:33.192Z,102197.31
2019-04-29T06:21:56.579Z,102199.80
2019-04-29T06:25:19.698Z,102204.34
2019-04-29T06:28:42.714Z,102212.80
2019-04-29T06:32:06.079Z,102211.51
2019-04-29T06:35:29.152Z,102218.33
2019-04-29T06:38:52.156Z,102219.28
2019-04-29T06:42:15.463Z,102217.53
2019-04-29T06:45:40.133Z,102217.80
2019-04-29T06:49:10.044Z,102222.94
2019-04-29T06:52:28.226Z,102225.95
2019-04-29T06:55:51.331Z,102230.55
2019-04-29T06:59:14.434Z,102232.85
2019-04-29T07:02:38.000Z,102232.52
2019-04-29T07:06:01.051Z,102236.70
2019-04-29T07:09:25.444Z,102232.12
2019-04-29T07:12:48.586Z,102233.58
2019-04-29T07:16:11.895Z,102229.85
2019-04-29T07:19:34.904Z,102232.33
2019-04-29T07:23:00.743Z,102233.09
2019-04-29T07:26:23.006Z,102229.98
2019-04-29T07:29:46.039Z,102237.69
2019-04-29T07:33:09.424Z,102234.98
2019-04-29T07:36:32.450Z,102250.39
2019-04-29T07:39:55.635Z,102249.02
2019-04-29T07:43:18.780Z,102248.17
2019-04-29T07:47:02.327Z,102250.07
2019-04-29T07:50:26.798Z,102248.33
2019-04-29T07:53:49.898Z,102243.14
2019-04-29T07:57:16.437Z,102247.84
2019-04-29T08:00:39.062Z,102248.72
2019-04-29T08:04:02.225Z,102248.91
2019-04-29T08:07:25.499Z,102248.48
2019-04-29T08:10:56.123Z,102246.91
2019-04-29T08:14:13.994Z,102234.84
2019-04-29T08:17:37.091Z,102243.20
2019-04-29T08:21:00.213Z,102245.44
2019-04-29T08:24:23.336Z,102239.84
2019-04-29T08:27:46.745Z,102239.45
2019-04-29T08:31:09.848Z,102242.03
2019-04-29T08:34:32.847Z,102240.97
2019-04-29T08:37:55.921Z,102243.67
2019-04-29T08:41:21.541Z,102242.98
2019-04-29T08:45:06.998Z,102243.87
2019-04-29T08:48:30.164Z,102232.75
2019-04-29T08:51:53.429Z,102242.94
2019-04-29T08:55:19.327Z,102243.86
2019-04-29T08:58:44.093Z,102246.83
2019-04-29T09:02:10.157Z,102244.08
2019-04-29T09:05:31.825Z,102238.62
2019-04-29T09:08:59.406Z,102242.59
2019-04-29T09:12:24.194Z,102240.45
2019-04-29T09:15:45.406Z,102232.55
2019-04-29T09:19:08.540Z,102235.40
2019-04-29T09:22:33.516Z,102234.89
2019-04-29T09:26:28.314Z,102235.06
2019-04-29T09:29:54.242Z,102225.28
2019-04-29T09:33:16.790Z,102232.14
2019-04-29T09:36:43.842Z,102218.16
2019-04-29T09:40:05.363Z,102217.58
2019-04-29T09:43:40.321Z,102218.41
2019-04-29T09:47:08.590Z,102212.28
2019-04-29T09:50:34.294Z,102210.23
2019-04-29T09:53:54.833Z,102208.75
2019-04-29T09:57:18.356Z,102203.84
2019-04-29T10:00:48.918Z,102201.22
2019-04-29T10:04:30.500Z,102200.88
2019-04-29T10:07:53.695Z,102209.13
2019-04-29T10:11:16.815Z,102201.38
2019-04-29T10:14:39.955Z,102199.78
2019-04-29T10:18:10.395Z,102199.20
2019-04-29T10:21:33.473Z,102192.64
2019-04-29T10:24:58.422Z,102191.12
2019-04-29T10:28:21.649Z,102188.06
2019-04-29T10:31:45.066Z,102187.09
2019-04-29T10:35:10.454Z,102187.28
2019-04-29T10:38:33.580Z,102180.03
2019-04-29T10:41:58.743Z,102175.83
2019-04-29T10:45:36.655Z,102176.63
2019-04-29T10:49:08.284Z,102172.83
2019-04-29T10:52:34.572Z,102172.27
2019-04-29T10:55:56.541Z,102164.02
2019-04-29T10:59:19.948Z,102168.53
2019-04-29T11:02:44.815Z,102152.95
2019-04-29T11:06:08.533Z,102165.61
2019-04-29T11:09:46.400Z,102159.38
2019-04-29T11:13:10.442Z,102156.62
2019-04-29T11:16:46.173Z,102151.03
2019-04-29T11:19:58.708Z,102147.84
2019-04-29T11:23:45.177Z,102143.33
2019-04-29T11:27:18.571Z,102154.63
2019-04-29T11:30:42.219Z,102146.45
2019-04-29T11:34:28.186Z,102149.31
2019-04-29T11:37:55.414Z,102135.64
2019-04-29T11:41:19.783Z,102141.48
2019-04-29T11:44:41.805Z,102133.19
2019-04-29T11:48:05.351Z,102136.31
2019-04-29T11:51:49.345Z,102131.77
2019-04-29T11:55:03.303Z,102130.16
2019-04-29T11:58:41.774Z,102126.26
2019-04-29T12:02:44.189Z,102128.55
2019-04-29T12:06:00.947Z,102117.52
2019-04-29T12:09:25.382Z,102121.20
2019-04-29T12:12:49.895Z,102115.22
2019-04-29T12:16:34.273Z,102112.20
2019-04-29T12:20:01.408Z,102114.39
2019-04-29T12:23:24.582Z,102112.77
2019-04-29T12:26:47.689Z,102110.20
2019-04-29T12:30:13.445Z,102110.45
2019-04-29T12:33:42.808Z,102100.30
2019-04-29T12:37:15.788Z,102099.77
2019-04-29T12:40:57.482Z,102097.67
2019-04-29T12:44:35.455Z,102092.03
2019-04-29T12:47:59.067Z,102095.13
2019-04-29T12:51:22.345Z,102087.20
2019-04-29T12:54:46.135Z,102079.59
2019-04-29T12:58:10.938Z,102078.37
2019-04-29T13:01:58.794Z,102066.66
2019-04-29T13:05:57.273Z,102073.84
2019-04-29T13:09:17.986Z,102066.34
2019-04-29T13:12:44.463Z,102061.16
2019-04-29T13:16:31.618Z,102065.72
2019-04-29T13:20:07.410Z,102053.76
2019-04-29T13:23:34.798Z,102053.22
2019-04-29T13:26:54.614Z,102043.11
2019-04-29T13:30:18.540Z,102038.18
2019-04-29T13:33:41.742Z,102034.34
2019-04-29T13:37:07.732Z,102034.86
2019-04-29T13:40:32.951Z,102031.16
2019-04-29T13:44:03.965Z,102025.71
2019-04-29T13:47:50.654Z,102024.62
2019-04-29T13:51:34.548Z,102019.41
2019-04-29T13:54:44.250Z,102017.58
2019-04-29T13:58:07.305Z,102016.92
2019-04-29T14:01:57.854Z,102014.39
2019-04-29T14:05:05.241Z,102005.17
2019-04-29T14:08:30.543Z,102001.03
2019-04-29T14:12:01.694Z,101999.72
2019-04-29T14:15:20.636Z,102009.69
2019-04-29T14:18:48.050Z,101992.57
2019-04-29T14:22:21.513Z,101992.28
2019-04-29T14:25:34.129Z,101987.28
2019-04-29T14:28:57.901Z,101989.14
2019-04-29T14:32:33.279Z,102003.92
2019-04-29T14:35:55.563Z,101999.95
2019-04-29T14:39:36.256Z,101994.65
2019-04-29T14:43:28.883Z,101989.33
2019-04-29T14:46:56.917Z,101989.23
2019-04-29T14:50:20.812Z,101986.75
2019-04-29T14:53:55.618Z,101993.05
2019-04-29T14:57:09.411Z,101989.67
2019-04-29T15:01:01.695Z,101997.08
2019-04-29T15:04:28.117Z,101996.17
2019-04-29T15:07:51.196Z,101992.20
2019-04-29T15:11:14.497Z,101989.10
2019-04-29T15:14:47.966Z,101990.55
2019-04-29T15:18:23.807Z,101992.14
2019-04-29T15:21:48.554Z,101983.88
2019-04-29T15:25:11.850Z,101983.41
2019-04-29T15:28:50.006Z,101980.45
2019-04-29T15:32:13.520Z,101969.23
2019-04-29T15:35:37.674Z,101972.66
2019-04-29T15:39:09.677Z,101971.49
2019-04-29T15:42:27.657Z,101970.70
2019-04-29T15:45:50.770Z,101971.69
2019-04-29T15:49:15.297Z,101974.53
2019-04-29T15:52:39.389Z,101980.58
2019-04-29T15:56:07.128Z,101980.61
2019-04-29T15:59:27.635Z,101972.94
2019-04-29T16:02:50.860Z,101974.69
2019-04-29T16:06:39.995Z,101974.01
2019-04-29T16:10:27.318Z,101971.36
2019-04-29T16:14:08.265Z,101976.80
2019-04-29T16:17:20.517Z,101979.13
2019-04-29T16:20:41.225Z,101977.39
2019-04-29T16:24:24.941Z,101982.05
2019-04-29T16:27:29.658Z,101978.91
2019-04-29T16:30:52.801Z,101982.73
2019-04-29T16:34:16.999Z,101977.05
2019-04-29T16:37:40.016Z,101975.89
2019-04-29T16:41:24.622Z,101979.69
2019-04-29T16:44:48.158Z,101973.55
2019-04-29T16:48:11.550Z,101977.75
2019-04-29T16:51:34.801Z,101981.61
2019-04-29T16:55:04.146Z,101977.95
2019-04-29T16:58:24.566Z,101981.35
2019-04-29T17:01:47.636Z,101978.00
2019-04-29T17:05:10.879Z,101981.86
2019-04-29T17:09:02.930Z,101976.87
2019-04-29T17:12:18.372Z,101982.60
2019-04-29T17:15:44.460Z,101982.44
2019-04-29T17:19:07.041Z,101973.59
2019-04-29T17:22:30.027Z,101975.85
2019-04-29T17:25:53.017Z,101972.91
2019-04-29T17:29:55.451Z,101979.61
2019-04-29T17:33:49.717Z,101981.56
2019-04-29T17:37:11.423Z,101982.94
2019-04-29T17:40:34.608Z,101981.29
2019-04-29T17:44:18.622Z,101981.34
2019-04-29T17:47:56.709Z,101976.41
2019-04-29T17:51:20.335Z,101971.07
2019-04-29T17:54:45.387Z,101977.98
2019-04-29T17:58:13.142Z,101977.53
2019-04-29T18:02:02.911Z,101976.80
2019-04-29T18:05:57.064Z,101979.89
2019-04-29T18:09:36.927Z,101982.28
2019-04-29T18:12:59.952Z,101984.54
2019-04-29T18:16:29.107Z,101989.80
2019-04-29T18:20:13.626Z,101988.45
2019-04-29T18:23:59.448Z,101988.14
2019-04-29T18:27:25.309Z,101993.95
2019-04-29T18:30:49.762Z,101999.53
2019-04-29T18:34:15.289Z,101999.28
2019-04-29T18:37:41.499Z,102000.34
2019-04-29T18:41:04.582Z,102000.04
2019-04-29T18:44:27.829Z,102000.14
2019-04-29T18:47:55.435Z,102011.53
2019-04-29T18:51:25.679Z,102010.33
2019-04-29T18:54:49.189Z,102021.22
2019-04-29T18:58:16.008Z,102021.48
2019-04-29T19:01:39.386Z,102016.69
2019-04-29T19:05:12.402Z,102019.74
2019-04-29T19:08:38.953Z,102024.69
2019-04-29T19:12:02.148Z,102019.35
2019-04-29T19:15:28.633Z,102028.48
2019-04-29T19:18:56.518Z,102035.55
2019-04-29T19:22:17.695Z,102035.28
2019-04-29T19:25:46.468Z,102038.01
2019-04-29T19:29:12.339Z,102039.97
2019-04-29T19:32:36.644Z,102038.34
2019-04-29T19:36:00.366Z,102043.67
2019-04-29T19:39:25.493Z,102042.48
2019-04-29T19:42:49.784Z,102042.97
2019-04-29T19:46:22.672Z,102046.87
2019-04-29T19:49:44.290Z,102054.60
2019-04-29T19:53:08.718Z,102059.91
2019-04-29T19:56:36.256Z,102064.47
2019-04-29T20:00:07.017Z,102058.19
2019-04-29T20:03:37.656Z,102058.98
2019-04-29T20:07:06.084Z,102061.03
2019-04-29T20:10:29.059Z,102067.63
2019-04-29T20:14:05.843Z,102070.51
2019-04-29T20:17:39.006Z,102065.19
2019-04-29T20:23:27.698Z,102077.05
2019-04-29T20:24:32.343Z,102068.61
2019-04-29T20:28:05.447Z,102073.77
2019-04-29T20:31:22.490Z,102068.27
2019-04-29T20:34:46.455Z,102071.48
2019-04-29T20:38:09.913Z,102074.63
2019-04-29T20:41:40.642Z,102075.72
2019-04-29T20:45:00.373Z,102073.87
2019-04-29T20:48:24.352Z,102068.83
2019-04-29T20:51:52.312Z,102071.37
2019-04-29T20:55:15.800Z,102074.14
2019-04-29T20:58:39.206Z,102076.68
2019-04-29T21:02:12.448Z,102072.50
2019-04-29T21:05:46.697Z,102071.64
2019-04-29T21:08:58.418Z,102069.58
2019-04-29T21:12:46.269Z,102063.06
2019-04-29T21:16:16.836Z,102073.84
2019-04-29T21:19:40.052Z,102074.06
2019-04-29T21:23:06.402Z,102072.08
2019-04-29T21:26:29.541Z,102076.77
2019-04-29T21:29:53.993Z,102077.80
2019-04-29T21:33:20.979Z,102076.27
2019-04-29T21:37:01.680Z,102076.23
2019-04-29T21:40:32.133Z,102078.02
2019-04-29T21:43:56.093Z,102074.59
2019-04-29T21:47:19.838Z,102067.52
2019-04-29T21:50:44.802Z,102074.82
2019-04-29T21:54:09.571Z,102068.59
2019-04-29T21:57:35.321Z,102068.80
2019-04-29T22:00:59.821Z,102076.06
2019-04-29T22:04:23.140Z,102072.70
2019-04-29T22:07:47.661Z,102072.16
2019-04-29T22:11:10.921Z,102073.91
2019-04-29T22:14:34.886Z,102080.73
2019-04-29T22:18:01.286Z,102078.91
2019-04-29T22:21:23.540Z,102077.72
2019-04-29T22:24:46.967Z,102075.19
2019-04-29T22:28:10.812Z,102074.48
2019-04-29T22:31:38.181Z,102074.80
2019-04-29T22:35:01.605Z,102068.48
2019-04-29T22:38:25.110Z,102074.94
2019-04-29T22:42:05.067Z,102075.31
2019-04-29T22:45:29.613Z,102078.18
2019-04-29T22:48:55.723Z,102073.14
2019-04-29T22:52:20.050Z,102074.37
2019-04-29T22:55:45.102Z,102076.37
2019-04-29T22:59:08.355Z,102072.08
2019-04-29T23:02:33.485Z,102073.75
2019-04-29T23:06:00.132Z,102068.98
2019-04-29T23:09:21.624Z,102071.77
2019-04-29T23:12:45.172Z,102069.76
2019-04-29T23:16:08.450Z,102062.86
2019-04-29T23:19:31.930Z,102069.91
2019-04-29T23:23:00.280Z,102063.53
2019-04-29T23:26:24.964Z,102063.91
2019-04-29T23:29:48.170Z,102062.81
2019-04-29T23:33:11.335Z,102058.94
2019-04-29T23:36:34.441Z,102061.53
2019-04-29T23:39:57.607Z,102053.78
2019-04-29T23:43:25.372Z,102054.46
2019-04-29T23:46:47.460Z,102050.00
2019-04-29T23:50:14.085Z,102047.91
2019-04-29T23:53:36.022Z,102044.36
2019-04-29T23:57:16.334Z,102038.84
